sensor_id;sensor_type;location;lat;lon;timestamp;P1;durP1;ratioP1;P2;durP2;ratioP2
29812;SDS011;16707;48.106;11.548;2023-05-07T00:01:14;10.07;;;7.40;;
29812;SDS011;16707;48.106;11.548;2023-05-07T00:03:44;8.30;;;6.95;;
29812;SDS011;16707;48.106;11.548;2023-05-07T00:06:14;9.85;;;6.90;;
29812;SDS011;16707;48.106;11.548;2023-05-07T00:08:42;7.68;;;6.70;;
29812;SDS011;16707;48.106;11.548;2023-05-07T00:11:10;7.90;;;6.95;;
29812;SDS011;16707;48.106;11.548;2023-05-07T00:13:38;8.98;;;7.80;;
29812;SDS011;16707;48.106;11.548;2023-05-07T00:16:05;8.90;;;6.95;;
29812;SDS011;16707;48.106;11.548;2023-05-07T00:18:33;12.07;;;7.93;;
29812;SDS011;16707;48.106;11.548;2023-05-07T00:21:00;9.07;;;6.72;;
29812;SDS011;16707;48.106;11.548;2023-05-07T00:23:29;9.13;;;7.22;;
29812;SDS011;16707;48.106;11.548;2023-05-07T00:26:00;9.88;;;6.88;;
29812;SDS011;16707;48.106;11.548;2023-05-07T00:28:27;8.88;;;7.60;;
29812;SDS011;16707;48.106;11.548;2023-05-07T00:30:56;10.13;;;6.80;;
29812;SDS011;16707;48.106;11.548;2023-05-07T00:33:26;9.40;;;7.40;;
29812;SDS011;16707;48.106;11.548;2023-05-07T00:35:56;11.75;;;6.93;;
29812;SDS011;16707;48.106;11.548;2023-05-07T00:38:28;11.80;;;7.30;;
29812;SDS011;16707;48.106;11.548;2023-05-07T00:40:56;9.32;;;7.30;;
29812;SDS011;16707;48.106;11.548;2023-05-07T00:43:29;8.20;;;7.32;;
29812;SDS011;16707;48.106;11.548;2023-05-07T00:46:01;7.72;;;6.70;;
29812;SDS011;16707;48.106;11.548;2023-05-07T00:48:32;10.10;;;7.55;;
29812;SDS011;16707;48.106;11.548;2023-05-07T00:50:59;8.73;;;6.85;;
29812;SDS011;16707;48.106;11.548;2023-05-07T00:53:36;7.78;;;6.82;;
29812;SDS011;16707;48.106;11.548;2023-05-07T00:56:06;9.25;;;7.70;;
29812;SDS011;16707;48.106;11.548;2023-05-07T00:58:35;9.45;;;7.00;;
29812;SDS011;16707;48.106;11.548;2023-05-07T01:01:03;10.10;;;6.93;;
29812;SDS011;16707;48.106;11.548;2023-05-07T01:03:34;11.38;;;8.27;;
29812;SDS011;16707;48.106;11.548;2023-05-07T01:06:01;9.63;;;7.82;;
29812;SDS011;16707;48.106;11.548;2023-05-07T01:08:29;8.68;;;7.47;;
29812;SDS011;16707;48.106;11.548;2023-05-07T01:11:00;10.00;;;7.80;;
29812;SDS011;16707;48.106;11.548;2023-05-07T01:13:28;11.38;;;8.35;;
29812;SDS011;16707;48.106;11.548;2023-05-07T01:15:59;10.90;;;8.40;;
29812;SDS011;16707;48.106;11.548;2023-05-07T01:18:28;10.65;;;8.75;;
29812;SDS011;16707;48.106;11.548;2023-05-07T01:20:56;10.10;;;7.93;;
29812;SDS011;16707;48.106;11.548;2023-05-07T01:23:31;10.13;;;7.90;;
29812;SDS011;16707;48.106;11.548;2023-05-07T01:26:00;8.17;;;7.23;;
29812;SDS011;16707;48.106;11.548;2023-05-07T01:28:28;8.77;;;7.55;;
29812;SDS011;16707;48.106;11.548;2023-05-07T01:30:56;9.25;;;7.97;;
29812;SDS011;16707;48.106;11.548;2023-05-07T01:33:27;8.98;;;7.95;;
29812;SDS011;16707;48.106;11.548;2023-05-07T01:35:59;10.18;;;8.13;;
29812;SDS011;16707;48.106;11.548;2023-05-07T01:38:33;8.40;;;7.13;;
29812;SDS011;16707;48.106;11.548;2023-05-07T01:41:06;11.10;;;8.25;;
29812;SDS011;16707;48.106;11.548;2023-05-07T01:43:36;12.63;;;8.95;;
29812;SDS011;16707;48.106;11.548;2023-05-07T01:46:03;14.40;;;9.15;;
29812;SDS011;16707;48.106;11.548;2023-05-07T01:48:32;10.95;;;8.88;;
29812;SDS011;16707;48.106;11.548;2023-05-07T01:51:00;10.65;;;7.78;;
29812;SDS011;16707;48.106;11.548;2023-05-07T01:53:28;12.68;;;8.50;;
29812;SDS011;16707;48.106;11.548;2023-05-07T01:56:03;10.50;;;7.90;;
29812;SDS011;16707;48.106;11.548;2023-05-07T01:58:31;10.40;;;7.47;;
29812;SDS011;16707;48.106;11.548;2023-05-07T02:00:58;9.15;;;7.10;;
29812;SDS011;16707;48.106;11.548;2023-05-07T02:03:26;9.85;;;7.57;;
29812;SDS011;16707;48.106;11.548;2023-05-07T02:05:56;17.45;;;9.13;;
29812;SDS011;16707;48.106;11.548;2023-05-07T02:08:29;12.40;;;8.60;;
29812;SDS011;16707;48.106;11.548;2023-05-07T02:10:56;12.45;;;7.75;;
29812;SDS011;16707;48.106;11.548;2023-05-07T02:13:33;8.57;;;6.60;;
29812;SDS011;16707;48.106;11.548;2023-05-07T02:16:03;10.60;;;6.93;;
29812;SDS011;16707;48.106;11.548;2023-05-07T02:18:33;5.95;;;5.32;;
29812;SDS011;16707;48.106;11.548;2023-05-07T02:21:04;6.50;;;5.72;;
29812;SDS011;16707;48.106;11.548;2023-05-07T02:23:38;7.63;;;6.07;;
29812;SDS011;16707;48.106;11.548;2023-05-07T02:26:09;8.98;;;5.45;;
29812;SDS011;16707;48.106;11.548;2023-05-07T02:28:38;8.50;;;6.15;;
29812;SDS011;16707;48.106;11.548;2023-05-07T02:31:07;7.95;;;5.75;;
29812;SDS011;16707;48.106;11.548;2023-05-07T02:33:35;7.47;;;5.78;;
29812;SDS011;16707;48.106;11.548;2023-05-07T02:36:05;7.70;;;6.32;;
29812;SDS011;16707;48.106;11.548;2023-05-07T02:38:33;8.27;;;5.75;;
29812;SDS011;16707;48.106;11.548;2023-05-07T02:41:00;7.18;;;6.00;;
29812;SDS011;16707;48.106;11.548;2023-05-07T02:43:27;8.10;;;5.60;;
29812;SDS011;16707;48.106;11.548;2023-05-07T02:46:06;8.32;;;6.18;;
29812;SDS011;16707;48.106;11.548;2023-05-07T02:48:33;8.60;;;5.93;;
29812;SDS011;16707;48.106;11.548;2023-05-07T02:51:07;8.77;;;6.03;;
29812;SDS011;16707;48.106;11.548;2023-05-07T02:53:37;6.75;;;6.10;;
29812;SDS011;16707;48.106;11.548;2023-05-07T02:56:04;7.18;;;6.38;;
29812;SDS011;16707;48.106;11.548;2023-05-07T02:58:32;7.68;;;6.00;;
29812;SDS011;16707;48.106;11.548;2023-05-07T03:00:59;8.70;;;5.90;;
29812;SDS011;16707;48.106;11.548;2023-05-07T03:03:28;8.32;;;5.72;;
29812;SDS011;16707;48.106;11.548;2023-05-07T03:05:55;5.53;;;4.93;;
29812;SDS011;16707;48.106;11.548;2023-05-07T03:08:25;7.97;;;5.05;;
29812;SDS011;16707;48.106;11.548;2023-05-07T03:10:52;6.30;;;5.60;;
29812;SDS011;16707;48.106;11.548;2023-05-07T03:13:29;5.78;;;4.90;;
29812;SDS011;16707;48.106;11.548;2023-05-07T03:15:56;6.72;;;5.05;;
29812;SDS011;16707;48.106;11.548;2023-05-07T03:18:25;6.72;;;5.30;;
29812;SDS011;16707;48.106;11.548;2023-05-07T03:20:54;6.05;;;4.97;;
29812;SDS011;16707;48.106;11.548;2023-05-07T03:23:27;7.07;;;5.72;;
29812;SDS011;16707;48.106;11.548;2023-05-07T03:26:02;5.40;;;4.88;;
29812;SDS011;16707;48.106;11.548;2023-05-07T03:28:38;6.53;;;5.47;;
29812;SDS011;16707;48.106;11.548;2023-05-07T03:31:05;6.65;;;5.95;;
29812;SDS011;16707;48.106;11.548;2023-05-07T03:33:39;7.15;;;5.72;;
29812;SDS011;16707;48.106;11.548;2023-05-07T03:36:18;7.00;;;5.65;;
29812;SDS011;16707;48.106;11.548;2023-05-07T03:38:45;7.15;;;6.45;;
29812;SDS011;16707;48.106;11.548;2023-05-07T03:41:13;6.95;;;5.57;;
29812;SDS011;16707;48.106;11.548;2023-05-07T03:43:45;8.13;;;6.72;;
29812;SDS011;16707;48.106;11.548;2023-05-07T03:46:18;8.35;;;6.53;;
29812;SDS011;16707;48.106;11.548;2023-05-07T03:48:47;6.63;;;5.93;;
29812;SDS011;16707;48.106;11.548;2023-05-07T03:51:13;7.00;;;5.68;;
29812;SDS011;16707;48.106;11.548;2023-05-07T03:53:43;8.32;;;5.78;;
29812;SDS011;16707;48.106;11.548;2023-05-07T03:56:10;10.45;;;5.78;;
29812;SDS011;16707;48.106;11.548;2023-05-07T03:58:37;7.15;;;5.43;;
29812;SDS011;16707;48.106;11.548;2023-05-07T04:01:04;7.38;;;5.82;;
29812;SDS011;16707;48.106;11.548;2023-05-07T04:03:32;7.63;;;5.65;;
29812;SDS011;16707;48.106;11.548;2023-05-07T04:06:00;11.18;;;5.78;;
29812;SDS011;16707;48.106;11.548;2023-05-07T04:08:27;6.35;;;5.63;;
29812;SDS011;16707;48.106;11.548;2023-05-07T04:10:55;7.22;;;5.53;;
29812;SDS011;16707;48.106;11.548;2023-05-07T04:13:23;7.35;;;5.10;;
29812;SDS011;16707;48.106;11.548;2023-05-07T04:15:51;7.05;;;5.45;;
29812;SDS011;16707;48.106;11.548;2023-05-07T04:18:18;5.75;;;5.15;;
29812;SDS011;16707;48.106;11.548;2023-05-07T04:20:46;7.00;;;5.28;;
29812;SDS011;16707;48.106;11.548;2023-05-07T04:23:16;6.25;;;5.65;;
29812;SDS011;16707;48.106;11.548;2023-05-07T04:25:48;5.60;;;4.93;;
29812;SDS011;16707;48.106;11.548;2023-05-07T04:28:21;6.80;;;5.05;;
29812;SDS011;16707;48.106;11.548;2023-05-07T04:30:54;6.00;;;5.28;;
29812;SDS011;16707;48.106;11.548;2023-05-07T04:33:34;5.60;;;5.00;;
29812;SDS011;16707;48.106;11.548;2023-05-07T04:36:03;5.05;;;4.30;;
29812;SDS011;16707;48.106;11.548;2023-05-07T04:38:34;6.20;;;4.63;;
29812;SDS011;16707;48.106;11.548;2023-05-07T04:41:12;5.07;;;4.00;;
29812;SDS011;16707;48.106;11.548;2023-05-07T04:43:41;5.05;;;4.53;;
29812;SDS011;16707;48.106;11.548;2023-05-07T04:46:09;4.93;;;4.05;;
29812;SDS011;16707;48.106;11.548;2023-05-07T04:48:35;6.47;;;4.45;;
29812;SDS011;16707;48.106;11.548;2023-05-07T04:51:03;5.15;;;4.25;;
29812;SDS011;16707;48.106;11.548;2023-05-07T04:53:31;4.20;;;3.80;;
29812;SDS011;16707;48.106;11.548;2023-05-07T04:56:06;4.78;;;4.10;;
29812;SDS011;16707;48.106;11.548;2023-05-07T04:58:33;4.53;;;3.85;;
29812;SDS011;16707;48.106;11.548;2023-05-07T05:01:03;3.90;;;3.40;;
29812;SDS011;16707;48.106;11.548;2023-05-07T05:03:34;4.03;;;3.63;;
29812;SDS011;16707;48.106;11.548;2023-05-07T05:06:09;4.65;;;3.50;;
29812;SDS011;16707;48.106;11.548;2023-05-07T05:08:38;3.72;;;3.20;;
29812;SDS011;16707;48.106;11.548;2023-05-07T05:11:07;4.22;;;3.63;;
29812;SDS011;16707;48.106;11.548;2023-05-07T05:13:34;3.65;;;3.28;;
29812;SDS011;16707;48.106;11.548;2023-05-07T05:16:01;4.00;;;2.80;;
29812;SDS011;16707;48.106;11.548;2023-05-07T05:18:29;4.22;;;3.40;;
29812;SDS011;16707;48.106;11.548;2023-05-07T05:21:03;3.83;;;3.00;;
29812;SDS011;16707;48.106;11.548;2023-05-07T05:23:38;2.95;;;2.53;;
29812;SDS011;16707;48.106;11.548;2023-05-07T05:26:07;3.83;;;2.67;;
29812;SDS011;16707;48.106;11.548;2023-05-07T05:28:34;2.88;;;2.22;;
29812;SDS011;16707;48.106;11.548;2023-05-07T05:31:08;2.95;;;2.65;;
29812;SDS011;16707;48.106;11.548;2023-05-07T05:33:36;2.65;;;2.35;;
29812;SDS011;16707;48.106;11.548;2023-05-07T05:36:07;2.85;;;2.40;;
29812;SDS011;16707;48.106;11.548;2023-05-07T05:38:37;3.33;;;2.17;;
29812;SDS011;16707;48.106;11.548;2023-05-07T05:41:04;2.60;;;2.40;;
29812;SDS011;16707;48.106;11.548;2023-05-07T05:43:33;3.47;;;2.60;;
29812;SDS011;16707;48.106;11.548;2023-05-07T05:46:00;2.78;;;2.38;;
29812;SDS011;16707;48.106;11.548;2023-05-07T05:48:39;2.80;;;2.60;;
29812;SDS011;16707;48.106;11.548;2023-05-07T05:51:07;2.50;;;2.30;;
29812;SDS011;16707;48.106;11.548;2023-05-07T05:53:34;2.50;;;2.30;;
29812;SDS011;16707;48.106;11.548;2023-05-07T05:56:08;3.33;;;2.50;;
29812;SDS011;16707;48.106;11.548;2023-05-07T05:58:37;3.25;;;2.40;;
29812;SDS011;16707;48.106;11.548;2023-05-07T06:01:10;3.03;;;2.60;;
29812;SDS011;16707;48.106;11.548;2023-05-07T06:03:40;3.13;;;2.38;;
29812;SDS011;16707;48.106;11.548;2023-05-07T06:06:09;3.07;;;2.77;;
29812;SDS011;16707;48.106;11.548;2023-05-07T06:08:37;3.17;;;2.40;;
29812;SDS011;16707;48.106;11.548;2023-05-07T06:11:04;2.88;;;2.42;;
29812;SDS011;16707;48.106;11.548;2023-05-07T06:13:37;2.50;;;2.30;;
29812;SDS011;16707;48.106;11.548;2023-05-07T06:16:05;2.72;;;2.53;;
29812;SDS011;16707;48.106;11.548;2023-05-07T06:18:35;2.90;;;2.53;;
29812;SDS011;16707;48.106;11.548;2023-05-07T06:21:09;2.75;;;2.55;;
29812;SDS011;16707;48.106;11.548;2023-05-07T06:23:44;2.90;;;2.70;;
29812;SDS011;16707;48.106;11.548;2023-05-07T06:26:16;5.00;;;2.63;;
29812;SDS011;16707;48.106;11.548;2023-05-07T06:28:43;2.70;;;2.50;;
29812;SDS011;16707;48.106;11.548;2023-05-07T06:31:10;4.10;;;2.78;;
29812;SDS011;16707;48.106;11.548;2023-05-07T06:33:41;3.17;;;2.88;;
29812;SDS011;16707;48.106;11.548;2023-05-07T06:36:09;2.85;;;2.60;;
29812;SDS011;16707;48.106;11.548;2023-05-07T06:38:39;3.75;;;2.47;;
29812;SDS011;16707;48.106;11.548;2023-05-07T06:41:06;2.80;;;2.60;;
29812;SDS011;16707;48.106;11.548;2023-05-07T06:43:38;3.38;;;2.65;;
29812;SDS011;16707;48.106;11.548;2023-05-07T06:46:08;2.40;;;2.20;;
29812;SDS011;16707;48.106;11.548;2023-05-07T06:48:38;2.15;;;2.00;;
29812;SDS011;16707;48.106;11.548;2023-05-07T06:51:05;3.30;;;2.33;;
29812;SDS011;16707;48.106;11.548;2023-05-07T06:53:35;2.20;;;1.98;;
29812;SDS011;16707;48.106;11.548;2023-05-07T06:56:05;2.17;;;2.08;;
29812;SDS011;16707;48.106;11.548;2023-05-07T06:58:39;3.00;;;2.10;;
29812;SDS011;16707;48.106;11.548;2023-05-07T07:01:06;2.13;;;1.92;;
29812;SDS011;16707;48.106;11.548;2023-05-07T07:03:36;2.20;;;2.00;;
29812;SDS011;16707;48.106;11.548;2023-05-07T07:06:03;2.60;;;2.40;;
29812;SDS011;16707;48.106;11.548;2023-05-07T07:08:34;3.42;;;2.42;;
29812;SDS011;16707;48.106;11.548;2023-05-07T07:11:10;3.50;;;2.42;;
29812;SDS011;16707;48.106;11.548;2023-05-07T07:13:43;2.83;;;2.38;;
29812;SDS011;16707;48.106;11.548;2023-05-07T07:16:10;2.95;;;2.65;;
29812;SDS011;16707;48.106;11.548;2023-05-07T07:18:38;2.60;;;2.40;;
29812;SDS011;16707;48.106;11.548;2023-05-07T07:21:05;4.00;;;2.40;;
29812;SDS011;16707;48.106;11.548;2023-05-07T07:23:32;2.83;;;2.38;;
29812;SDS011;16707;48.106;11.548;2023-05-07T07:26:02;3.22;;;2.80;;
29812;SDS011;16707;48.106;11.548;2023-05-07T07:28:42;3.05;;;2.55;;
29812;SDS011;16707;48.106;11.548;2023-05-07T07:31:10;3.72;;;2.60;;
29812;SDS011;16707;48.106;11.548;2023-05-07T07:33:38;5.00;;;2.78;;
29812;SDS011;16707;48.106;11.548;2023-05-07T07:36:07;3.55;;;3.25;;
29812;SDS011;16707;48.106;11.548;2023-05-07T07:38:35;2.88;;;2.63;;
29812;SDS011;16707;48.106;11.548;2023-05-07T07:41:02;3.25;;;2.67;;
29812;SDS011;16707;48.106;11.548;2023-05-07T07:43:39;3.33;;;2.80;;
29812;SDS011;16707;48.106;11.548;2023-05-07T07:46:08;2.92;;;2.70;;
29812;SDS011;16707;48.106;11.548;2023-05-07T07:48:35;2.80;;;2.53;;
29812;SDS011;16707;48.106;11.548;2023-05-07T07:51:02;5.47;;;3.40;;
29812;SDS011;16707;48.106;11.548;2023-05-07T07:53:30;3.08;;;2.70;;
29812;SDS011;16707;48.106;11.548;2023-05-07T07:55:58;4.07;;;2.85;;
29812;SDS011;16707;48.106;11.548;2023-05-07T07:58:29;4.22;;;3.13;;
29812;SDS011;16707;48.106;11.548;2023-05-07T08:01:00;4.05;;;3.35;;
29812;SDS011;16707;48.106;11.548;2023-05-07T08:03:29;3.17;;;2.88;;
29812;SDS011;16707;48.106;11.548;2023-05-07T08:06:00;3.20;;;2.85;;
29812;SDS011;16707;48.106;11.548;2023-05-07T08:08:27;3.33;;;2.67;;
29812;SDS011;16707;48.106;11.548;2023-05-07T08:11:00;4.70;;;3.30;;
29812;SDS011;16707;48.106;11.548;2023-05-07T08:13:27;6.05;;;2.80;;
29812;SDS011;16707;48.106;11.548;2023-05-07T08:15:57;3.10;;;2.58;;
29812;SDS011;16707;48.106;11.548;2023-05-07T08:18:24;3.22;;;2.80;;
29812;SDS011;16707;48.106;11.548;2023-05-07T08:20:58;4.10;;;2.63;;
29812;SDS011;16707;48.106;11.548;2023-05-07T08:23:25;4.30;;;2.50;;
29812;SDS011;16707;48.106;11.548;2023-05-07T08:25:59;3.63;;;2.58;;
29812;SDS011;16707;48.106;11.548;2023-05-07T08:28:29;3.78;;;3.10;;
29812;SDS011;16707;48.106;11.548;2023-05-07T08:30:59;3.63;;;3.15;;
29812;SDS011;16707;48.106;11.548;2023-05-07T08:33:31;3.53;;;2.80;;
29812;SDS011;16707;48.106;11.548;2023-05-07T08:36:01;3.97;;;3.05;;
29812;SDS011;16707;48.106;11.548;2023-05-07T08:38:28;3.90;;;2.95;;
29812;SDS011;16707;48.106;11.548;2023-05-07T08:40:57;3.40;;;3.10;;
29812;SDS011;16707;48.106;11.548;2023-05-07T08:43:28;5.15;;;3.00;;
29812;SDS011;16707;48.106;11.548;2023-05-07T08:45:58;3.70;;;2.70;;
29812;SDS011;16707;48.106;11.548;2023-05-07T08:48:32;3.63;;;2.75;;
29812;SDS011;16707;48.106;11.548;2023-05-07T08:51:02;3.17;;;2.85;;
29812;SDS011;16707;48.106;11.548;2023-05-07T08:53:30;3.33;;;2.78;;
29812;SDS011;16707;48.106;11.548;2023-05-07T08:56:08;3.20;;;2.90;;
29812;SDS011;16707;48.106;11.548;2023-05-07T08:58:35;2.83;;;2.55;;
29812;SDS011;16707;48.106;11.548;2023-05-07T09:01:03;3.30;;;3.00;;
29812;SDS011;16707;48.106;11.548;2023-05-07T09:03:37;3.35;;;2.65;;
29812;SDS011;16707;48.106;11.548;2023-05-07T09:06:05;4.50;;;2.47;;
29812;SDS011;16707;48.106;11.548;2023-05-07T09:08:33;2.40;;;2.20;;
29812;SDS011;16707;48.106;11.548;2023-05-07T09:11:01;3.88;;;2.60;;
29812;SDS011;16707;48.106;11.548;2023-05-07T09:13:29;3.08;;;2.75;;
29812;SDS011;16707;48.106;11.548;2023-05-07T09:16:11;3.38;;;2.50;;
29812;SDS011;16707;48.106;11.548;2023-05-07T09:18:44;3.65;;;2.33;;
29812;SDS011;16707;48.106;11.548;2023-05-07T09:21:14;2.85;;;2.40;;
29812;SDS011;16707;48.106;11.548;2023-05-07T09:23:43;4.82;;;2.33;;
29812;SDS011;16707;48.106;11.548;2023-05-07T09:26:11;3.22;;;2.45;;
29812;SDS011;16707;48.106;11.548;2023-05-07T09:28:45;3.30;;;2.42;;
29812;SDS011;16707;48.106;11.548;2023-05-07T09:31:12;3.13;;;2.10;;
29812;SDS011;16707;48.106;11.548;2023-05-07T09:33:39;4.53;;;2.22;;
29812;SDS011;16707;48.106;11.548;2023-05-07T09:36:08;3.88;;;2.40;;
29812;SDS011;16707;48.106;11.548;2023-05-07T09:38:39;3.42;;;3.03;;
29812;SDS011;16707;48.106;11.548;2023-05-07T09:41:07;2.30;;;2.10;;
29812;SDS011;16707;48.106;11.548;2023-05-07T09:43:36;3.10;;;2.25;;
29812;SDS011;16707;48.106;11.548;2023-05-07T09:46:06;2.08;;;1.75;;
29812;SDS011;16707;48.106;11.548;2023-05-07T09:48:41;2.97;;;2.20;;
29812;SDS011;16707;48.106;11.548;2023-05-07T09:51:18;2.60;;;2.20;;
29812;SDS011;16707;48.106;11.548;2023-05-07T09:53:56;2.57;;;2.10;;
29812;SDS011;16707;48.106;11.548;2023-05-07T09:56:34;5.43;;;2.58;;
29812;SDS011;16707;48.106;11.548;2023-05-07T09:59:06;2.47;;;2.00;;
29812;SDS011;16707;48.106;11.548;2023-05-07T10:01:35;2.83;;;2.17;;
29812;SDS011;16707;48.106;11.548;2023-05-07T10:04:03;2.28;;;2.05;;
29812;SDS011;16707;48.106;11.548;2023-05-07T10:06:41;1.80;;;1.70;;
29812;SDS011;16707;48.106;11.548;2023-05-07T10:09:16;3.80;;;1.93;;
29812;SDS011;16707;48.106;11.548;2023-05-07T10:11:50;3.15;;;1.92;;
29812;SDS011;16707;48.106;11.548;2023-05-07T10:14:19;2.72;;;2.45;;
29812;SDS011;16707;48.106;11.548;2023-05-07T10:16:50;3.97;;;2.17;;
29812;SDS011;16707;48.106;11.548;2023-05-07T10:19:21;3.25;;;2.50;;
29812;SDS011;16707;48.106;11.548;2023-05-07T10:22:01;2.38;;;2.10;;
29812;SDS011;16707;48.106;11.548;2023-05-07T10:24:41;1.77;;;1.67;;
29812;SDS011;16707;48.106;11.548;2023-05-07T10:27:14;2.15;;;1.80;;
29812;SDS011;16707;48.106;11.548;2023-05-07T10:29:49;3.03;;;1.88;;
29812;SDS011;16707;48.106;11.548;2023-05-07T10:32:35;3.13;;;2.30;;
29812;SDS011;16707;48.106;11.548;2023-05-07T10:35:09;2.72;;;2.42;;
29812;SDS011;16707;48.106;11.548;2023-05-07T10:40:09;3.22;;;2.17;;
29812;SDS011;16707;48.106;11.548;2023-05-07T10:42:38;3.17;;;2.60;;
29812;SDS011;16707;48.106;11.548;2023-05-07T10:45:11;3.05;;;2.33;;
29812;SDS011;16707;48.106;11.548;2023-05-07T10:50:39;3.58;;;2.40;;
29812;SDS011;16707;48.106;11.548;2023-05-07T10:53:24;2.17;;;1.83;;
29812;SDS011;16707;48.106;11.548;2023-05-07T10:58:53;2.40;;;2.00;;
29812;SDS011;16707;48.106;11.548;2023-05-07T11:04:20;2.40;;;1.90;;
29812;SDS011;16707;48.106;11.548;2023-05-07T11:09:56;2.45;;;1.83;;
29812;SDS011;16707;48.106;11.548;2023-05-07T11:12:50;2.80;;;1.83;;
29812;SDS011;16707;48.106;11.548;2023-05-07T11:15:35;2.28;;;1.70;;
29812;SDS011;16707;48.106;11.548;2023-05-07T11:18:09;3.47;;;1.90;;
29812;SDS011;16707;48.106;11.548;2023-05-07T11:20:46;3.15;;;2.03;;
29812;SDS011;16707;48.106;11.548;2023-05-07T11:26:26;5.03;;;2.57;;
29812;SDS011;16707;48.106;11.548;2023-05-07T11:28:58;2.60;;;2.25;;
29812;SDS011;16707;48.106;11.548;2023-05-07T11:31:29;2.22;;;2.00;;
29812;SDS011;16707;48.106;11.548;2023-05-07T11:33:56;2.08;;;1.88;;
29812;SDS011;16707;48.106;11.548;2023-05-07T11:36:30;2.70;;;2.50;;
29812;SDS011;16707;48.106;11.548;2023-05-07T11:39:01;3.42;;;3.13;;
29812;SDS011;16707;48.106;11.548;2023-05-07T11:41:37;3.70;;;2.83;;
29812;SDS011;16707;48.106;11.548;2023-05-07T11:44:04;4.68;;;3.20;;
29812;SDS011;16707;48.106;11.548;2023-05-07T11:46:42;3.00;;;2.58;;
29812;SDS011;16707;48.106;11.548;2023-05-07T11:49:11;3.13;;;2.45;;
29812;SDS011;16707;48.106;11.548;2023-05-07T11:51:38;2.97;;;2.35;;
29812;SDS011;16707;48.106;11.548;2023-05-07T11:54:07;2.70;;;2.50;;
29812;SDS011;16707;48.106;11.548;2023-05-07T11:56:40;3.35;;;3.05;;
29812;SDS011;16707;48.106;11.548;2023-05-07T11:59:17;3.47;;;3.17;;
29812;SDS011;16707;48.106;11.548;2023-05-07T12:04:26;5.18;;;3.40;;
29812;SDS011;16707;48.106;11.548;2023-05-07T12:09:24;4.50;;;3.78;;
29812;SDS011;16707;48.106;11.548;2023-05-07T12:11:55;3.70;;;2.97;;
29812;SDS011;16707;48.106;11.548;2023-05-07T12:14:29;3.20;;;2.90;;
29812;SDS011;16707;48.106;11.548;2023-05-07T12:17:05;3.28;;;2.97;;
29812;SDS011;16707;48.106;11.548;2023-05-07T12:19:33;3.55;;;3.25;;
29812;SDS011;16707;48.106;11.548;2023-05-07T12:22:01;4.15;;;3.15;;
29812;SDS011;16707;48.106;11.548;2023-05-07T12:24:44;5.05;;;3.13;;
29812;SDS011;16707;48.106;11.548;2023-05-07T12:27:14;3.90;;;2.97;;
29812;SDS011;16707;48.106;11.548;2023-05-07T12:29:46;3.15;;;2.85;;
29812;SDS011;16707;48.106;11.548;2023-05-07T12:32:26;3.72;;;3.00;;
29812;SDS011;16707;48.106;11.548;2023-05-07T12:35:04;4.40;;;2.97;;
29812;SDS011;16707;48.106;11.548;2023-05-07T12:37:32;3.90;;;2.90;;
29812;SDS011;16707;48.106;11.548;2023-05-07T12:40:05;3.17;;;2.60;;
29812;SDS011;16707;48.106;11.548;2023-05-07T12:42:39;3.17;;;2.88;;
29812;SDS011;16707;48.106;11.548;2023-05-07T12:45:16;3.45;;;2.97;;
29812;SDS011;16707;48.106;11.548;2023-05-07T12:47:45;2.75;;;2.47;;
29812;SDS011;16707;48.106;11.548;2023-05-07T12:50:16;4.57;;;2.60;;
29812;SDS011;16707;48.106;11.548;2023-05-07T12:52:43;3.22;;;2.60;;
29812;SDS011;16707;48.106;11.548;2023-05-07T12:55:13;3.38;;;2.88;;
29812;SDS011;16707;48.106;11.548;2023-05-07T12:57:43;3.22;;;2.63;;
29812;SDS011;16707;48.106;11.548;2023-05-07T13:00:15;3.30;;;2.88;;
29812;SDS011;16707;48.106;11.548;2023-05-07T13:03:02;2.80;;;2.60;;
29812;SDS011;16707;48.106;11.548;2023-05-07T13:05:32;5.63;;;2.50;;
29812;SDS011;16707;48.106;11.548;2023-05-07T13:08:00;2.97;;;2.55;;
29812;SDS011;16707;48.106;11.548;2023-05-07T13:10:27;5.03;;;2.88;;
29812;SDS011;16707;48.106;11.548;2023-05-07T13:12:56;3.47;;;2.90;;
29812;SDS011;16707;48.106;11.548;2023-05-07T13:15:26;3.15;;;2.42;;
29812;SDS011;16707;48.106;11.548;2023-05-07T13:17:56;2.40;;;2.20;;
29812;SDS011;16707;48.106;11.548;2023-05-07T13:20:23;3.90;;;2.70;;
29812;SDS011;16707;48.106;11.548;2023-05-07T13:22:54;3.38;;;2.30;;
29812;SDS011;16707;48.106;11.548;2023-05-07T13:25:21;2.40;;;2.20;;
29812;SDS011;16707;48.106;11.548;2023-05-07T13:27:48;3.22;;;2.10;;
29812;SDS011;16707;48.106;11.548;2023-05-07T13:30:19;2.50;;;2.30;;
29812;SDS011;16707;48.106;11.548;2023-05-07T13:32:49;3.00;;;2.08;;
29812;SDS011;16707;48.106;11.548;2023-05-07T13:35:23;2.88;;;2.00;;
29812;SDS011;16707;48.106;11.548;2023-05-07T13:37:53;2.45;;;2.10;;
29812;SDS011;16707;48.106;11.548;2023-05-07T13:40:20;2.50;;;2.17;;
29812;SDS011;16707;48.106;11.548;2023-05-07T13:42:48;2.80;;;1.90;;
29812;SDS011;16707;48.106;11.548;2023-05-07T13:45:19;3.30;;;2.40;;
29812;SDS011;16707;48.106;11.548;2023-05-07T13:47:53;2.20;;;2.00;;
29812;SDS011;16707;48.106;11.548;2023-05-07T13:50:27;2.15;;;1.90;;
29812;SDS011;16707;48.106;11.548;2023-05-07T13:52:56;3.05;;;2.33;;
29812;SDS011;16707;48.106;11.548;2023-05-07T13:55:24;2.10;;;1.90;;
29812;SDS011;16707;48.106;11.548;2023-05-07T13:57:54;2.60;;;2.10;;
29812;SDS011;16707;48.106;11.548;2023-05-07T14:00:24;2.25;;;1.67;;
29812;SDS011;16707;48.106;11.548;2023-05-07T14:02:53;2.17;;;1.75;;
29812;SDS011;16707;48.106;11.548;2023-05-07T14:05:20;1.98;;;1.80;;
29812;SDS011;16707;48.106;11.548;2023-05-07T14:07:48;2.92;;;1.92;;
29812;SDS011;16707;48.106;11.548;2023-05-07T14:10:17;3.60;;;2.40;;
29812;SDS011;16707;48.106;11.548;2023-05-07T14:12:48;2.65;;;2.00;;
29812;SDS011;16707;48.106;11.548;2023-05-07T14:15:21;3.20;;;2.13;;
29812;SDS011;16707;48.106;11.548;2023-05-07T14:17:50;2.17;;;1.98;;
29812;SDS011;16707;48.106;11.548;2023-05-07T14:20:17;2.80;;;2.00;;
29812;SDS011;16707;48.106;11.548;2023-05-07T14:22:44;3.20;;;2.13;;
29812;SDS011;16707;48.106;11.548;2023-05-07T14:25:11;3.55;;;2.10;;
29812;SDS011;16707;48.106;11.548;2023-05-07T14:27:39;3.50;;;2.05;;
29812;SDS011;16707;48.106;11.548;2023-05-07T14:30:10;2.30;;;2.08;;
29812;SDS011;16707;48.106;11.548;2023-05-07T14:32:38;2.30;;;2.10;;
29812;SDS011;16707;48.106;11.548;2023-05-07T14:35:07;2.30;;;2.10;;
29812;SDS011;16707;48.106;11.548;2023-05-07T14:37:40;2.50;;;2.08;;
29812;SDS011;16707;48.106;11.548;2023-05-07T14:40:07;3.25;;;2.40;;
29812;SDS011;16707;48.106;11.548;2023-05-07T14:42:38;2.67;;;2.47;;
29812;SDS011;16707;48.106;11.548;2023-05-07T14:45:05;3.10;;;2.30;;
29812;SDS011;16707;48.106;11.548;2023-05-07T14:47:34;2.70;;;2.50;;
29812;SDS011;16707;48.106;11.548;2023-05-07T14:50:02;3.08;;;2.30;;
29812;SDS011;16707;48.106;11.548;2023-05-07T14:52:31;2.40;;;2.20;;
29812;SDS011;16707;48.106;11.548;2023-05-07T14:54:58;3.42;;;2.58;;
29812;SDS011;16707;48.106;11.548;2023-05-07T14:57:30;2.67;;;2.47;;
29812;SDS011;16707;48.106;11.548;2023-05-07T15:00:00;3.50;;;2.58;;
29812;SDS011;16707;48.106;11.548;2023-05-07T15:02:27;5.28;;;3.10;;
29812;SDS011;16707;48.106;11.548;2023-05-07T15:04:55;3.28;;;2.90;;
29812;SDS011;16707;48.106;11.548;2023-05-07T15:07:22;2.53;;;2.30;;
29812;SDS011;16707;48.106;11.548;2023-05-07T15:09:51;3.72;;;3.33;;
29812;SDS011;16707;48.106;11.548;2023-05-07T15:12:21;4.03;;;2.88;;
29812;SDS011;16707;48.106;11.548;2023-05-07T15:14:48;4.78;;;3.20;;